Time;durP1;ratioP1;P1;durP2;ratioP2;P2;SDS_P1;SDS_P2;PMS_P1;PMS_P2;Temp;Humidity;BMP_temperature;BMP_pressure;BME280_temperature;BME280_humidity;BME280_pressure;Samples;Min_cycle;Max_cycle;Signal;HPM_P1;HPM_P2
2023/01/05 00:01:10;;;;;;;22.03;21.03;;;21.90;63.90;;;;;;5057253;28;20881;-59
2023/01/05 00:03:38;;;;;;;21.03;20.00;;;21.90;64.30;;;;;;5057837;28;20535;-57
2023/01/05 00:06:09;;;;;;;21.40;20.30;;;21.80;64.70;;;;;;5057253;28;20432;-56
2023/01/05 00:08:36;;;;;;;21.20;20.00;;;21.70;64.80;;;;;;5057389;28;20551;-58
2023/01/05 00:24:47;;;;;;;21.70;20.80;;;21.30;66.60;;;;;;5056015;28;20802;-57
2023/01/05 00:27:14;;;;;;;21.93;21.13;;;21.30;66.90;;;;;;5055288;28;20528;-57
2023/01/05 00:29:40;;;;;;;22.53;21.20;;;21.20;67.10;;;;;;5055186;28;20919;-58
2023/01/05 00:32:07;;;;;;;22.07;21.03;;;21.20;67.20;;;;;;5055350;28;20479;-58
2023/01/05 00:34:34;;;;;;;21.80;20.80;;;21.20;67.60;;;;;;5039343;28;21049;-55
2023/01/05 00:37:02;;;;;;;21.37;20.47;;;21.20;68.60;;;;;;5056191;28;20516;-57
2023/01/05 00:39:29;;;;;;;22.10;21.20;;;21.10;68.00;;;;;;5056277;28;20533;-59
2023/01/05 00:41:56;;;;;;;21.27;20.37;;;21.10;68.20;;;;;;5056525;28;20544;-56
2023/01/05 00:44:23;;;;;;;21.10;20.27;;;21.10;69.10;;;;;;5055883;28;20532;-54
2023/01/05 00:46:49;;;;;;;21.63;20.70;;;21.10;68.40;;;;;;5055895;28;20538;-57
2023/01/05 00:49:16;;;;;;;22.67;21.43;;;21.10;68.40;;;;;;5056601;28;20495;-53
2023/01/05 00:51:43;;;;;;;21.60;20.60;;;21.10;68.40;;;;;;5056108;28;20530;-56
2023/01/05 00:54:11;;;;;;;21.53;20.63;;;21.00;68.40;;;;;;5055736;28;20530;-57
2023/01/05 00:56:38;;;;;;;22.03;20.93;;;21.00;68.50;;;;;;5056399;28;20476;-57
2023/01/05 00:59:05;;;;;;;22.30;21.03;;;21.00;68.60;;;;;;5056256;28;20464;-56
2023/01/05 01:01:32;;;;;;;21.90;21.00;;;21.00;68.80;;;;;;5056772;28;20619;-57
2023/01/05 01:03:58;;;;;;;21.73;20.83;;;20.90;68.80;;;;;;5056817;28;20487;-57
2023/01/05 01:06:25;;;;;;;21.10;20.30;;;20.90;68.90;;;;;;5056799;28;20864;-57
2023/01/05 01:08:52;;;;;;;21.80;20.90;;;20.90;69.10;;;;;;5056160;28;20566;-58
2023/01/05 01:11:20;;;;;;;22.17;20.87;;;20.90;69.10;;;;;;5056424;28;20506;-56
2023/01/05 01:13:47;;;;;;;22.43;21.40;;;20.90;69.30;;;;;;5055556;28;20556;-54
2023/01/05 01:16:16;;;;;;;22.30;21.30;;;20.90;69.30;;;;;;5056369;28;20571;-56
2023/01/05 01:18:43;;;;;;;22.07;20.97;;;20.80;69.10;;;;;;5055706;28;20985;-56
2023/01/05 01:21:10;;;;;;;22.07;20.97;;;20.80;69.10;;;;;;5056290;28;20450;-56
2023/01/05 01:23:37;;;;;;;21.70;20.80;;;20.80;69.20;;;;;;5056233;28;20454;-57
2023/01/05 01:26:05;;;;;;;21.70;20.80;;;20.80;69.20;;;;;;5056379;28;20494;-58
2023/01/05 01:28:33;;;;;;;21.83;20.93;;;20.70;69.30;;;;;;5055827;28;20475;-52
2023/01/05 01:31:00;;;;;;;22.33;21.37;;;20.80;69.50;;;;;;5054490;28;20933;-57
2023/01/05 01:33:28;;;;;;;21.60;20.70;;;20.70;69.50;;;;;;5055666;28;20452;-56
2023/01/05 01:35:55;;;;;;;22.63;21.47;;;20.70;69.50;;;;;;5055488;28;20486;-53
2023/01/05 01:38:23;;;;;;;21.60;20.80;;;20.70;69.60;;;;;;5055977;28;20938;-55
2023/01/05 01:40:50;;;;;;;22.07;21.20;;;20.70;69.80;;;;;;5055513;28;20453;-54
2023/01/05 01:43:39;;;;;;;22.00;21.00;;;20.70;69.90;;;;;;5056057;28;20448;-58
2023/01/05 01:46:07;;;;;;;22.00;20.90;;;20.70;70.00;;;;;;5055435;28;20942;-54
2023/01/05 01:48:36;;;;;;;21.37;20.57;;;20.70;70.00;;;;;;5054785;28;20470;-56
2023/01/05 01:51:06;;;;;;;21.30;20.40;;;20.60;70.10;;;;;;5054342;28;20450;-56
2023/01/05 01:53:38;;;;;;;21.70;20.80;;;20.60;70.10;;;;;;5055238;28;20448;-56
2023/01/05 01:56:09;;;;;;;22.80;21.90;;;20.60;70.10;;;;;;5054872;28;20490;-55
2023/01/05 01:58:36;;;;;;;21.73;20.83;;;20.60;70.30;;;;;;5054531;28;20464;-56
2023/01/05 02:01:02;;;;;;;21.40;20.60;;;20.60;70.30;;;;;;5054441;28;20816;-55
2023/01/05 02:03:31;;;;;;;21.87;21.10;;;20.60;70.30;;;;;;5054497;28;20470;-57
2023/01/05 02:05:59;;;;;;;22.00;21.20;;;20.60;70.40;;;;;;5053807;28;21023;-54
2023/01/05 02:08:30;;;;;;;21.47;20.67;;;20.60;70.60;;;;;;5054687;28;20503;-57
2023/01/05 02:11:08;;;;;;;21.23;20.33;;;20.60;71.30;;;;;;5053341;28;20444;-56
2023/01/05 02:13:48;;;;;;;21.13;20.23;;;20.50;70.30;;;;;;5053677;28;20444;-55
2023/01/05 02:16:24;;;;;;;20.70;19.97;;;20.50;70.40;;;;;;5053853;28;20475;-54
2023/01/05 02:19:08;;;;;;;20.80;20.00;;;20.50;70.20;;;;;;5053745;28;20471;-55
2023/01/05 02:21:48;;;;;;;22.27;21.13;;;20.50;70.40;;;;;;5053038;28;20968;-56
2023/01/05 02:24:44;;;;;;;20.90;20.00;;;20.50;70.50;;;;;;5053953;28;20444;-55
2023/01/05 02:27:43;;;;;;;21.20;20.27;;;20.50;70.50;;;;;;5054047;28;20534;-55
2023/01/05 02:30:42;;;;;;;20.87;19.93;;;20.50;70.50;;;;;;5007748;28;20555;-53
2023/01/05 02:33:21;;;;;;;21.57;20.57;;;20.50;70.20;;;;;;5054250;28;20445;-55
2023/01/05 02:35:57;;;;;;;21.10;20.10;;;20.50;69.90;;;;;;5054605;28;20476;-55
2023/01/05 02:38:32;;;;;;;21.57;20.57;;;20.50;69.60;;;;;;5055023;28;20454;-56
2023/01/05 02:41:05;;;;;;;21.80;20.80;;;20.50;69.40;;;;;;5056031;28;20968;-53
2023/01/05 02:43:32;;;;;;;22.13;21.17;;;20.50;69.40;;;;;;5058853;28;20949;-56
2023/01/05 02:46:00;;;;;;;22.00;20.90;;;20.50;69.40;;;;;;5058452;28;20448;-57
2023/01/05 02:48:27;;;;;;;21.00;20.20;;;20.50;69.40;;;;;;5058622;28;20440;-55
2023/01/05 02:50:59;;;;;;;24.30;23.20;;;20.50;69.40;;;;;;5060076;28;20959;-52
2023/01/05 02:53:31;;;;;;;21.53;20.63;;;20.50;69.20;;;;;;5060394;28;20447;-54
2023/01/05 02:56:04;;;;;;;21.87;20.87;;;20.50;69.30;;;;;;5060754;28;20489;-54
2023/01/05 02:58:36;;;;;;;21.60;20.60;;;20.50;69.30;;;;;;5059922;28;20441;-54
2023/01/05 03:01:09;;;;;;;21.00;20.10;;;20.50;69.20;;;;;;5058098;28;20447;-58
2023/01/05 03:03:40;;;;;;;22.53;21.63;;;20.50;69.10;;;;;;5058545;28;20447;-54
2023/01/05 03:06:11;;;;;;;21.70;20.80;;;20.50;69.20;;;;;;5057252;28;20539;-57
2023/01/05 03:08:44;;;;;;;21.07;20.17;;;20.50;69.20;;;;;;5057097;28;20460;-55
2023/01/05 03:14:01;;;;;;;21.30;20.47;;;20.50;69.40;;;;;;5057609;28;20470;-54
2023/01/05 03:16:34;;;;;;;21.37;20.57;;;20.50;69.30;;;;;;5056839;28;20476;-56
2023/01/05 03:35:46;;;;;;;21.57;20.63;;;20.50;70.00;;;;;;5056892;28;20483;-55
2023/01/05 03:38:21;;;;;;;21.00;20.20;;;20.40;70.10;;;;;;5057051;28;20535;-58
2023/01/05 03:40:51;;;;;;;21.20;20.40;;;20.40;70.10;;;;;;5056447;28;20443;-57
2023/01/05 03:43:19;;;;;;;22.90;21.77;;;20.40;70.30;;;;;;5056413;28;20447;-55
2023/01/05 03:45:51;;;;;;;21.80;20.80;;;20.40;70.50;;;;;;5056342;28;20976;-56
2023/01/05 03:48:20;;;;;;;21.37;20.57;;;20.40;70.50;;;;;;5056558;28;20448;-59
2023/01/05 03:50:47;;;;;;;21.70;20.80;;;20.40;70.60;;;;;;5055669;28;20453;-58
2023/01/05 03:53:14;;;;;;;22.10;21.03;;;20.30;70.40;;;;;;5055548;28;20752;-57
2023/01/05 03:55:41;;;;;;;21.43;20.60;;;20.30;70.70;;;;;;5055776;28;20472;-57
2023/01/05 03:58:08;;;;;;;21.50;20.67;;;20.30;70.60;;;;;;5056365;28;20450;-59
2023/01/05 04:00:34;;;;;;;21.67;20.67;;;20.30;70.60;;;;;;5056287;28;20534;-58
2023/01/05 04:03:01;;;;;;;21.40;20.50;;;20.30;70.50;;;;;;5056445;28;20440;-57
2023/01/05 04:05:29;;;;;;;21.70;20.70;;;20.30;70.50;;;;;;5056294;28;20440;-57
2023/01/05 04:07:56;;;;;;;21.20;20.30;;;20.30;70.40;;;;;;5056108;28;20527;-57
2023/01/05 04:10:23;;;;;;;22.23;21.13;;;20.30;70.40;;;;;;5055611;28;20559;-59
2023/01/05 04:12:50;;;;;;;21.70;20.73;;;20.30;71.40;;;;;;5056236;28;20539;-58
2023/01/05 04:15:17;;;;;;;22.10;21.00;;;20.30;70.70;;;;;;5055828;28;20535;-58
2023/01/05 04:17:43;;;;;;;21.77;20.77;;;20.20;70.50;;;;;;5055631;28;20451;-57
2023/01/05 04:20:11;;;;;;;21.43;20.50;;;20.30;70.40;;;;;;5056072;28;20550;-58
2023/01/05 04:22:39;;;;;;;21.27;20.37;;;20.20;70.50;;;;;;5057169;28;20446;-56
2023/01/05 04:25:07;;;;;;;21.57;20.67;;;20.30;70.40;;;;;;5056553;28;20528;-57
2023/01/05 04:27:34;;;;;;;21.67;20.77;;;20.20;70.40;;;;;;5056716;28;20447;-58
2023/01/05 04:30:01;;;;;;;22.03;21.13;;;20.20;70.30;;;;;;5056076;28;20527;-58
2023/01/05 04:32:28;;;;;;;21.67;20.87;;;20.20;70.50;;;;;;5056236;28;20532;-57
2023/01/05 04:34:55;;;;;;;22.20;21.27;;;20.20;70.30;;;;;;5055507;28;20467;-57
2023/01/05 04:37:22;;;;;;;22.67;21.70;;;20.20;70.30;;;;;;5055140;28;20494;-60
2023/01/05 04:39:50;;;;;;;21.10;20.30;;;20.20;70.30;;;;;;5055399;28;21006;-57
2023/01/05 04:42:17;;;;;;;20.90;20.10;;;20.20;70.40;;;;;;5055104;28;20447;-57
2023/01/05 04:44:43;;;;;;;21.70;20.73;;;20.20;70.80;;;;;;5055552;28;20448;-55
2023/01/05 04:47:10;;;;;;;22.03;21.13;;;20.20;69.80;;;;;;5055279;28;20487;-58
2023/01/05 04:49:37;;;;;;;21.73;20.80;;;20.20;69.90;;;;;;5055246;28;20902;-54
2023/01/05 04:52:05;;;;;;;21.17;20.30;;;20.20;70.10;;;;;;5055004;28;20539;-59
2023/01/05 04:54:31;;;;;;;21.60;20.80;;;20.20;70.10;;;;;;5055360;28;20472;-57
2023/01/05 04:57:00;;;;;;;21.30;20.40;;;20.20;70.10;;;;;;5054947;28;20570;-55
2023/01/05 04:59:26;;;;;;;22.27;21.23;;;20.20;70.10;;;;;;5055073;28;20547;-53
2023/01/05 05:01:53;;;;;;;22.60;21.60;;;20.20;70.30;;;;;;5055491;28;20543;-57
2023/01/05 05:04:20;;;;;;;22.77;21.87;;;20.20;70.30;;;;;;5054956;28;20666;-57
2023/01/05 05:06:47;;;;;;;22.60;21.60;;;20.20;70.40;;;;;;5055757;28;20451;-56
2023/01/05 05:09:14;;;;;;;23.00;22.00;;;20.20;70.40;;;;;;5055195;28;20558;-58
2023/01/05 05:11:40;;;;;;;23.23;22.20;;;20.20;70.50;;;;;;5055379;28;20532;-58
2023/01/05 05:14:09;;;;;;;23.30;22.30;;;20.20;70.40;;;;;;5055314;28;21034;-57
2023/01/05 05:16:35;;;;;;;23.67;22.63;;;20.20;70.50;;;;;;5053849;28;20898;-58
2023/01/05 05:19:02;;;;;;;23.27;22.27;;;20.20;70.20;;;;;;5054923;28;20566;-57
2023/01/05 05:21:29;;;;;;;23.03;22.13;;;20.20;70.40;;;;;;5041547;28;20535;-60
2023/01/05 05:23:56;;;;;;;22.87;21.97;;;20.20;70.40;;;;;;5052815;28;20452;-59
2023/01/05 05:26:23;;;;;;;22.77;21.70;;;20.20;70.50;;;;;;5052566;28;20451;-59
2023/01/05 05:28:50;;;;;;;22.40;21.50;;;20.20;70.50;;;;;;5052173;28;22169;-54
2023/01/05 05:31:18;;;;;;;23.13;22.13;;;20.20;70.50;;;;;;5052119;28;20449;-55
2023/01/05 05:33:45;;;;;;;23.07;21.77;;;20.20;70.60;;;;;;5051814;28;20467;-56
2023/01/05 05:36:12;;;;;;;23.17;22.17;;;20.20;70.60;;;;;;5051622;28;20480;-56
2023/01/05 05:38:38;;;;;;;22.73;21.70;;;20.20;70.50;;;;;;5050774;28;21045;-53
2023/01/05 05:41:05;;;;;;;22.43;21.53;;;20.20;70.40;;;;;;5051565;28;20539;-56
2023/01/05 05:43:32;;;;;;;22.20;21.30;;;20.20;70.20;;;;;;5052002;28;20798;-53
2023/01/05 05:45:59;;;;;;;22.20;21.30;;;20.20;70.10;;;;;;5051943;28;20524;-53
2023/01/05 05:48:27;;;;;;;22.90;22.00;;;20.20;70.20;;;;;;5051882;28;20496;-54
2023/01/05 05:50:54;;;;;;;22.93;21.90;;;20.20;70.00;;;;;;5051698;28;20440;-55
2023/01/05 05:53:21;;;;;;;23.07;21.83;;;20.20;70.30;;;;;;5051822;28;20437;-52
2023/01/05 05:55:49;;;;;;;23.03;22.00;;;20.20;70.20;;;;;;5051696;28;20448;-55
2023/01/05 05:58:17;;;;;;;23.83;22.43;;;20.10;70.10;;;;;;5051774;28;20448;-55
2023/01/05 06:00:43;;;;;;;22.93;21.83;;;20.10;70.10;;;;;;5051604;28;20443;-57
2023/01/05 06:03:10;;;;;;;23.93;23.00;;;20.10;70.50;;;;;;5051896;28;20881;-52
2023/01/05 06:05:38;;;;;;;24.60;23.40;;;20.10;70.30;;;;;;5051782;28;20539;-53
2023/01/05 06:08:05;;;;;;;23.57;22.57;;;20.10;70.40;;;;;;5051524;28;20551;-54
2023/01/05 06:10:32;;;;;;;24.03;22.73;;;20.10;70.40;;;;;;5051224;28;20554;-57
2023/01/05 06:12:59;;;;;;;22.43;21.53;;;20.10;70.50;;;;;;5051547;28;21018;-53
2023/01/05 06:15:26;;;;;;;22.67;21.67;;;20.10;70.70;;;;;;5050773;28;20449;-56
2023/01/05 06:17:52;;;;;;;23.00;21.90;;;20.10;70.90;;;;;;5051588;28;20511;-58
2023/01/05 06:20:19;;;;;;;23.60;22.30;;;20.10;70.90;;;;;;5051231;28;20551;-59
2023/01/05 06:22:47;;;;;;;23.20;22.30;;;20.10;70.90;;;;;;5051669;28;20498;-58
2023/01/05 06:25:14;;;;;;;23.90;22.90;;;20.10;71.00;;;;;;5051106;28;20450;-60
2023/01/05 06:27:41;;;;;;;23.83;22.83;;;20.10;70.90;;;;;;5051398;28;20864;-58
2023/01/05 06:30:09;;;;;;;22.73;21.83;;;20.10;71.00;;;;;;5050907;28;20468;-57
2023/01/05 06:32:36;;;;;;;23.17;22.17;;;20.00;71.10;;;;;;5051147;28;20498;-53
2023/01/05 06:35:03;;;;;;;24.30;22.93;;;20.00;71.10;;;;;;5051196;28;20524;-57
2023/01/05 06:37:29;;;;;;;22.90;22.00;;;20.00;71.10;;;;;;5050993;28;20482;-55
2023/01/05 06:39:58;;;;;;;23.30;22.30;;;20.00;71.20;;;;;;5050686;28;20464;-57
2023/01/05 06:42:25;;;;;;;22.87;21.87;;;20.00;71.30;;;;;;5051236;28;20481;-58
2023/01/05 06:44:52;;;;;;;22.97;21.90;;;20.00;71.30;;;;;;5051524;28;20505;-56
2023/01/05 06:47:19;;;;;;;23.60;22.30;;;20.00;71.20;;;;;;5051261;28;20882;-56
2023/01/05 06:49:46;;;;;;;23.53;22.53;;;20.00;71.20;;;;;;5051187;28;20491;-57
2023/01/05 06:52:13;;;;;;;23.70;22.60;;;20.00;71.30;;;;;;5050863;28;20444;-60
2023/01/05 06:54:40;;;;;;;22.90;21.90;;;20.00;70.90;;;;;;5050922;28;20436;-54
2023/01/05 06:57:08;;;;;;;23.37;22.27;;;20.00;70.90;;;;;;5042474;28;20927;-56
2023/01/05 06:59:35;;;;;;;23.17;22.17;;;20.00;71.20;;;;;;5031217;28;20497;-55
2023/01/05 07:02:01;;;;;;;22.93;22.03;;;20.00;71.20;;;;;;5046970;28;20444;-56
2023/01/05 07:04:28;;;;;;;23.40;22.40;;;20.00;71.20;;;;;;5051254;28;20480;-55
2023/01/05 07:06:55;;;;;;;24.50;23.30;;;19.90;71.20;;;;;;5051271;28;20450;-55
2023/01/05 07:09:22;;;;;;;24.37;23.37;;;19.90;71.20;;;;;;5050898;28;20502;-53
2023/01/05 07:11:49;;;;;;;25.00;24.00;;;20.00;71.40;;;;;;5051196;28;20470;-55
2023/01/05 07:14:17;;;;;;;24.33;23.33;;;20.00;71.40;;;;;;5034800;28;20535;-56
2023/01/05 07:16:44;;;;;;;23.13;22.13;;;20.00;71.50;;;;;;5031220;28;20484;-53
2023/01/05 07:19:11;;;;;;;23.47;22.57;;;20.00;71.50;;;;;;5030834;28;20485;-54
2023/01/05 07:21:38;;;;;;;23.60;22.63;;;20.00;71.50;;;;;;5031275;28;20453;-57
2023/01/05 07:24:05;;;;;;;23.17;22.17;;;20.00;71.60;;;;;;5031172;28;21053;-57
2023/01/05 07:26:32;;;;;;;23.17;22.17;;;20.00;71.50;;;;;;5048610;28;20970;-63
2023/01/05 07:28:59;;;;;;;22.77;21.87;;;19.90;71.50;;;;;;5054370;28;20554;-61
2023/01/05 07:31:27;;;;;;;24.47;23.37;;;20.00;71.50;;;;;;5054525;28;20535;-61
2023/01/05 07:33:54;;;;;;;23.67;22.67;;;20.10;71.30;;;;;;5054402;28;20523;-63
2023/01/05 07:36:20;;;;;;;24.33;23.13;;;20.10;71.10;;;;;;5054271;28;20543;-64
2023/01/05 07:38:47;;;;;;;24.13;23.10;;;20.20;71.50;;;;;;5054314;28;20563;-61
2023/01/05 07:41:14;;;;;;;23.50;22.50;;;20.30;72.50;;;;;;5054374;28;20531;-56
2023/01/05 07:43:41;;;;;;;24.43;23.33;;;20.30;72.50;;;;;;5054470;28;20510;-56
2023/01/05 07:46:09;;;;;;;24.30;23.00;;;20.40;71.60;;;;;;5053956;28;20946;-56
2023/01/05 07:48:40;;;;;;;24.27;22.93;;;20.50;71.60;;;;;;5054236;28;20471;-59
2023/01/05 07:51:07;;;;;;;24.90;23.90;;;20.60;71.70;;;;;;5054116;28;20477;-59
2023/01/05 07:53:36;;;;;;;24.40;23.40;;;20.70;72.00;;;;;;5053739;28;20455;-59
2023/01/05 07:56:03;;;;;;;23.63;22.73;;;20.70;71.80;;;;;;5053888;28;20822;-59
2023/01/05 07:58:32;;;;;;;25.13;24.00;;;20.80;71.90;;;;;;5053448;28;20919;-57
2023/01/05 08:01:03;;;;;;;24.93;23.73;;;20.90;72.10;;;;;;5049591;28;20531;-60
2023/01/05 08:03:30;;;;;;;24.53;23.33;;;21.00;71.90;;;;;;5054255;28;20454;-58
2023/01/05 08:05:58;;;;;;;24.50;23.40;;;21.00;71.60;;;;;;5053883;28;20707;-59
2023/01/05 08:08:25;;;;;;;23.77;22.67;;;21.10;71.70;;;;;;5053818;28;20829;-58
2023/01/05 08:10:52;;;;;;;24.20;23.10;;;21.20;71.40;;;;;;5053695;28;20542;-58
2023/01/05 08:16:03;;;;;;;24.53;23.33;;;21.20;71.60;;;;;;5053730;28;20443;-57
2023/01/05 08:18:30;;;;;;;24.97;23.87;;;21.20;70.70;;;;;;5053638;28;20510;-56
2023/01/05 08:20:59;;;;;;;25.10;24.00;;;21.20;70.70;;;;;;5053507;28;21041;-54
2023/01/05 08:23:27;;;;;;;24.80;23.70;;;21.20;70.70;;;;;;5053770;28;20452;-56
2023/01/05 08:25:55;;;;;;;25.23;24.03;;;21.20;70.80;;;;;;5053337;28;20447;-59
2023/01/05 08:28:22;;;;;;;25.40;24.30;;;21.20;70.90;;;;;;5053192;28;20565;-57
2023/01/05 08:30:49;;;;;;;25.03;23.83;;;21.20;70.90;;;;;;5052994;28;20498;-55
2023/01/05 08:33:16;;;;;;;24.70;23.60;;;21.20;70.90;;;;;;5053385;28;20532;-59
2023/01/05 08:35:44;;;;;;;25.07;23.70;;;21.20;71.10;;;;;;5053192;28;20441;-55
2023/01/05 08:38:12;;;;;;;25.10;24.00;;;21.10;71.10;;;;;;5052522;28;20555;-58
2023/01/05 08:40:39;;;;;;;24.80;23.60;;;21.10;71.30;;;;;;5052920;28;20565;-56
2023/01/05 08:43:06;;;;;;;24.83;23.73;;;21.10;71.40;;;;;;5053119;28;20448;-57
2023/01/05 08:45:34;;;;;;;25.00;23.87;;;21.10;71.50;;;;;;5053237;28;20452;-57
2023/01/05 08:48:02;;;;;;;24.90;23.90;;;21.10;71.50;;;;;;5053059;28;20539;-58
2023/01/05 08:50:29;;;;;;;24.37;23.27;;;21.10;71.70;;;;;;5052627;28;21065;-57
2023/01/05 08:52:57;;;;;;;24.27;23.17;;;21.10;71.90;;;;;;5052791;28;20479;-59
2023/01/05 08:55:25;;;;;;;24.47;23.43;;;21.20;74.70;;;;;;5052989;28;20484;-60
2023/01/05 08:57:52;;;;;;;24.77;23.57;;;21.20;72.90;;;;;;5037100;28;20559;-59
2023/01/05 09:00:20;;;;;;;24.57;23.47;;;21.30;73.60;;;;;;5052609;28;20558;-58
2023/01/05 09:02:47;;;;;;;25.30;24.20;;;21.40;73.30;;;;;;5052950;28;20459;-58
2023/01/05 09:05:15;;;;;;;25.47;24.17;;;21.50;72.70;;;;;;5053229;28;20816;-59
2023/01/05 09:07:42;;;;;;;24.97;23.73;;;21.50;71.70;;;;;;5052116;28;20441;-59
2023/01/05 09:10:09;;;;;;;24.80;23.53;;;21.60;71.20;;;;;;5052339;28;20857;-59
2023/01/05 09:12:38;;;;;;;26.27;24.97;;;21.60;71.20;;;;;;5053455;28;20454;-59
2023/01/05 09:15:06;;;;;;;25.20;24.10;;;21.70;70.50;;;;;;5049245;28;20449;-60
2023/01/05 09:17:36;;;;;;;24.50;23.50;;;21.70;69.90;;;;;;5052919;28;20488;-56
2023/01/05 09:20:03;;;;;;;25.17;23.97;;;21.80;69.70;;;;;;5052767;28;20483;-59
2023/01/05 09:22:31;;;;;;;24.50;23.50;;;21.80;69.30;;;;;;5052270;28;20449;-61
2023/01/05 09:24:57;;;;;;;25.30;23.93;;;21.90;69.10;;;;;;5052513;28;20444;-57
2023/01/05 09:27:24;;;;;;;24.53;23.43;;;21.90;68.90;;;;;;5052210;28;20527;-61
2023/01/05 09:29:52;;;;;;;24.50;23.40;;;21.90;68.70;;;;;;5052118;28;20467;-60
2023/01/05 09:32:19;;;;;;;24.77;23.70;;;21.90;68.60;;;;;;5052327;28;20450;-61
2023/01/05 09:34:46;;;;;;;24.70;23.60;;;22.00;68.40;;;;;;5052853;28;20859;-60
2023/01/05 09:37:13;;;;;;;27.20;24.60;;;22.00;68.20;;;;;;5052511;28;20476;-60
2023/01/05 09:39:40;;;;;;;25.93;24.53;;;22.10;68.10;;;;;;5052550;28;20981;-60
2023/01/05 09:42:12;;;;;;;25.37;24.27;;;22.10;67.90;;;;;;5052156;28;20544;-58
2023/01/05 09:44:43;;;;;;;25.53;24.33;;;22.10;67.70;;;;;;5052489;28;20506;-61
2023/01/05 09:47:17;;;;;;;24.90;23.90;;;22.10;67.60;;;;;;5052383;28;20539;-60
2023/01/05 09:49:46;;;;;;;24.83;23.73;;;22.00;67.40;;;;;;5052064;28;20464;-58
2023/01/05 09:52:13;;;;;;;25.40;24.20;;;22.00;67.60;;;;;;5052293;28;20484;-61
2023/01/05 09:54:41;;;;;;;25.00;23.60;;;22.00;67.70;;;;;;5052486;28;20968;-64
2023/01/05 09:57:16;;;;;;;25.53;24.33;;;22.00;69.40;;;;;;5052729;28;20526;-57
2023/01/05 09:59:45;;;;;;;24.93;23.83;;;22.00;68.40;;;;;;5052110;28;20999;-59
2023/01/05 10:02:22;;;;;;;24.90;23.50;;;22.00;68.10;;;;;;5052597;28;20566;-55
2023/01/05 10:04:50;;;;;;;25.40;24.20;;;22.10;68.10;;;;;;5052788;28;20519;-59
2023/01/05 10:07:22;;;;;;;24.57;23.53;;;22.10;67.90;;;;;;5052123;28;20440;-59
2023/01/05 10:09:49;;;;;;;25.13;23.90;;;22.10;67.70;;;;;;5052536;28;20825;-57
2023/01/05 10:15:10;;;;;;;25.53;24.33;;;22.20;67.30;;;;;;5052655;28;20419;-60
2023/01/05 10:17:39;;;;;;;24.80;23.60;;;22.20;67.70;;;;;;5052286;28;20486;-59
2023/01/05 10:20:15;;;;;;;24.40;23.30;;;22.20;67.10;;;;;;5052210;28;20503;-59
2023/01/05 10:22:52;;;;;;;25.57;24.37;;;22.30;67.00;;;;;;5052503;28;20451;-59
2023/01/05 10:25:23;;;;;;;24.53;23.40;;;22.30;66.70;;;;;;5052570;28;20473;-59
2023/01/05 10:27:55;;;;;;;25.43;24.13;;;22.30;66.60;;;;;;5052365;28;20517;-58
2023/01/05 10:30:24;;;;;;;25.03;23.90;;;22.40;66.50;;;;;;5052326;28;20470;-60
2023/01/05 10:32:59;;;;;;;24.97;23.73;;;22.40;66.50;;;;;;5052193;28;20961;-59
2023/01/05 10:35:49;;;;;;;25.03;23.83;;;22.40;66.40;;;;;;5052119;28;20454;-59
2023/01/05 10:38:27;;;;;;;24.87;23.70;;;22.40;66.20;;;;;;5048838;28;20482;-60
2023/01/05 10:41:03;;;;;;;25.27;24.20;;;22.40;66.10;;;;;;5050038;28;20451;-63
2023/01/05 10:43:48;;;;;;;24.73;23.63;;;22.50;66.20;;;;;;5054135;28;20443;-59
2023/01/05 10:46:17;;;;;;;25.33;24.23;;;22.50;65.90;;;;;;5059878;28;20447;-63
2023/01/05 10:48:45;;;;;;;25.20;23.93;;;22.60;66.00;;;;;;5064045;28;20468;-60
2023/01/05 10:51:12;;;;;;;24.80;23.70;;;22.60;65.80;;;;;;5067558;28;20471;-63
2023/01/05 10:53:42;;;;;;;24.70;23.60;;;22.60;65.70;;;;;;5063341;28;20961;-59
2023/01/05 10:56:14;;;;;;;25.73;24.53;;;22.60;66.00;;;;;;5058622;28;20451;-59
2023/01/05 10:58:42;;;;;;;24.40;23.40;;;22.60;65.60;;;;;;5051322;28;20545;-58
2023/01/05 11:01:23;;;;;;;24.73;23.53;;;22.60;65.40;;;;;;5051412;28;20458;-59
2023/01/05 11:03:55;;;;;;;25.00;23.80;;;22.60;65.30;;;;;;5055090;28;20811;-61
2023/01/05 11:06:27;;;;;;;25.63;24.50;;;22.60;65.10;;;;;;5055690;28;20451;-58
2023/01/05 11:08:55;;;;;;;23.73;22.73;;;22.60;65.40;;;;;;5055816;28;20472;-61
2023/01/05 11:11:25;;;;;;;24.20;23.17;;;22.60;65.30;;;;;;5056469;28;20479;-63
2023/01/05 11:13:55;;;;;;;24.23;23.20;;;22.70;65.40;;;;;;5056351;28;20530;-57
2023/01/05 11:16:25;;;;;;;25.40;24.27;;;22.80;65.40;;;;;;5057260;28;20470;-63
2023/01/05 11:18:55;;;;;;;24.57;23.47;;;22.80;65.20;;;;;;5056420;28;20483;-65
2023/01/05 11:21:24;;;;;;;25.20;24.00;;;22.80;65.30;;;;;;5057810;28;20523;-62
2023/01/05 11:23:52;;;;;;;24.90;23.90;;;22.80;64.80;;;;;;5057670;28;20451;-63
2023/01/05 11:26:28;;;;;;;24.73;23.63;;;22.80;64.60;;;;;;5057053;28;20861;-62
2023/01/05 11:29:04;;;;;;;25.37;24.27;;;22.90;64.50;;;;;;5043073;28;20464;-63
2023/01/05 11:31:36;;;;;;;25.27;24.27;;;22.90;64.90;;;;;;5052996;28;20454;-60
2023/01/05 11:34:14;;;;;;;25.53;24.23;;;22.90;64.40;;;;;;5055878;28;20448;-58
2023/01/05 11:36:42;;;;;;;25.00;23.90;;;22.90;64.10;;;;;;5055419;28;20446;-60
2023/01/05 11:39:19;;;;;;;25.23;24.13;;;22.90;63.80;;;;;;5056068;28;20499;-62
2023/01/05 11:41:46;;;;;;;25.20;23.90;;;23.00;63.80;;;;;;5056270;28;21021;-63
2023/01/05 11:44:20;;;;;;;24.50;23.40;;;23.00;63.60;;;;;;5055395;28;20444;-63
2023/01/05 11:46:47;;;;;;;24.40;23.20;;;23.00;63.50;;;;;;5056289;28;20448;-59
2023/01/05 11:49:18;;;;;;;24.10;23.10;;;23.00;63.40;;;;;;5054420;28;20542;-59
2023/01/05 11:51:45;;;;;;;24.03;23.00;;;23.10;63.70;;;;;;5054684;28;20454;-60
2023/01/05 11:54:33;;;;;;;24.10;23.10;;;23.10;63.40;;;;;;5054619;28;20539;-62
2023/01/05 11:57:15;;;;;;;24.53;23.40;;;23.10;63.50;;;;;;5043847;28;20445;-62
2023/01/05 11:59:42;;;;;;;25.20;24.00;;;23.20;63.50;;;;;;5054061;28;20515;-61
2023/01/05 12:02:38;;;;;;;25.23;24.13;;;23.20;63.20;;;;;;5054142;28;20440;-59
2023/01/05 12:05:17;;;;;;;25.80;24.30;;;23.20;63.20;;;;;;5054289;28;20455;-58
2023/01/05 12:07:49;;;;;;;25.13;24.13;;;23.20;62.60;;;;;;5053923;28;20452;-59
2023/01/05 12:10:33;;;;;;;24.90;23.90;;;23.10;62.50;;;;;;5053990;28;20470;-59
2023/01/05 12:13:07;;;;;;;24.77;23.47;;;23.10;62.70;;;;;;5033254;28;20532;-59
2023/01/05 12:15:55;;;;;;;25.43;24.17;;;23.10;62.70;;;;;;5034298;28;20535;-60
2023/01/05 12:18:49;;;;;;;27.43;25.43;;;23.10;63.00;;;;;;5033876;28;20495;-61
2023/01/05 12:21:23;;;;;;;28.73;26.80;;;23.20;65.30;;;;;;5040887;28;20454;-57
2023/01/05 12:24:24;;;;;;;29.03;26.50;;;23.20;69.20;;;;;;5054050;28;20444;-60
2023/01/05 12:27:04;;;;;;;28.60;26.33;;;23.20;70.30;;;;;;5053266;28;20450;-59
2023/01/05 12:30:19;;;;;;;28.60;26.30;;;23.20;70.60;;;;;;5053386;28;20486;-58
2023/01/05 12:33:08;;;;;;;29.97;27.67;;;23.20;71.90;;;;;;5017954;28;20455;-59
2023/01/05 12:35:55;;;;;;;26.73;24.67;;;23.20;72.30;;;;;;5053029;28;20523;-60
2023/01/05 12:38:35;;;;;;;26.37;24.73;;;23.20;73.00;;;;;;5052570;28;20486;-61
2023/01/05 12:41:36;;;;;;;27.80;25.80;;;23.20;73.30;;;;;;5054257;28;20436;-61
2023/01/05 12:44:33;;;;;;;27.90;25.57;;;23.20;73.00;;;;;;5053869;28;20934;-57
2023/01/05 12:47:13;;;;;;;27.60;25.67;;;23.20;73.50;;;;;;5053597;28;20458;-61
2023/01/05 12:49:44;;;;;;;27.00;25.13;;;23.20;72.70;;;;;;5052810;28;20472;-61
2023/01/05 12:52:18;;;;;;;28.07;25.80;;;23.20;72.80;;;;;;5053719;28;20444;-58
2023/01/05 12:54:53;;;;;;;28.17;25.83;;;23.20;73.30;;;;;;5053229;28;20531;-60
2023/01/05 12:57:26;;;;;;;27.80;25.40;;;23.20;73.30;;;;;;5053405;28;20452;-60
2023/01/05 12:59:57;;;;;;;28.20;25.40;;;23.20;72.80;;;;;;5052511;28;20884;-60
2023/01/05 13:02:32;;;;;;;28.30;26.07;;;23.20;72.30;;;;;;5052796;28;20534;-59
2023/01/05 13:05:04;;;;;;;27.17;25.40;;;23.20;72.20;;;;;;5053089;28;20465;-60
2023/01/05 13:07:34;;;;;;;28.50;26.33;;;23.20;72.20;;;;;;5052834;28;20467;-60
2023/01/05 13:10:05;;;;;;;27.83;26.30;;;23.20;72.60;;;;;;5052719;28;20462;-58
2023/01/05 13:12:34;;;;;;;28.30;25.50;;;23.20;72.20;;;;;;5052676;28;20449;-59
2023/01/05 13:15:16;;;;;;;27.07;25.00;;;23.20;72.30;;;;;;5052673;28;20450;-60
2023/01/05 13:17:46;;;;;;;27.00;25.17;;;23.20;72.10;;;;;;5042048;28;20836;-59
2023/01/05 13:20:33;;;;;;;26.50;24.90;;;23.20;71.80;;;;;;5052668;28;20452;-59
2023/01/05 13:23:04;;;;;;;25.70;24.40;;;23.20;71.70;;;;;;5052465;28;20454;-58